createdAt,value
2023-02-08T00:01:09.942Z,56.38
2023-02-08T00:03:37.543Z,64.28
2023-02-08T00:06:06.247Z,56.92
2023-02-08T00:08:34.329Z,55.70
2023-02-08T00:11:02.090Z,56.50
2023-02-08T00:13:29.503Z,69.65
2023-02-08T00:15:56.854Z,56.70
2023-02-08T00:18:24.270Z,55.90
2023-02-08T00:20:52.694Z,55.88
2023-02-08T00:23:20.040Z,58.33
2023-02-08T00:25:47.321Z,66.15
2023-02-08T00:28:16.134Z,58.60
2023-02-08T00:30:44.360Z,65.85
2023-02-08T00:33:12.205Z,66.25
2023-02-08T00:35:41.083Z,56.17
2023-02-08T00:38:08.612Z,67.88
2023-02-08T00:40:36.013Z,77.13
2023-02-08T00:43:03.656Z,64.93
2023-02-08T00:45:32.452Z,71.20
2023-02-08T00:48:00.085Z,64.78
2023-02-08T00:50:27.466Z,64.32
2023-02-08T00:52:54.729Z,63.42
2023-02-08T00:55:22.033Z,68.57
2023-02-08T00:57:49.286Z,56.92
2023-02-08T01:00:16.724Z,68.72
2023-02-08T01:02:44.190Z,54.28
2023-02-08T01:05:11.570Z,58.78
2023-02-08T01:07:39.155Z,52.78
2023-02-08T01:10:09.386Z,55.13
2023-02-08T01:12:36.713Z,56.22
2023-02-08T01:15:04.432Z,48.63
2023-02-08T01:17:31.810Z,47.40
2023-02-08T01:19:59.157Z,48.90
2023-02-08T01:22:28.446Z,50.22
2023-02-08T01:24:55.903Z,52.17
2023-02-08T01:27:23.238Z,58.70
2023-02-08T01:29:50.658Z,70.03
2023-02-08T01:32:20.171Z,121.75
2023-02-08T01:34:47.719Z,145.20
2023-02-08T01:37:15.224Z,107.75
2023-02-08T01:39:42.545Z,141.95
2023-02-08T01:42:16.961Z,69.38
2023-02-08T01:45:23.001Z,53.00
2023-02-08T01:48:02.136Z,55.75
2023-02-08T01:50:33.805Z,163.98
2023-02-08T01:53:02.080Z,116.47
2023-02-08T01:55:35.975Z,87.10
2023-02-08T01:58:07.720Z,83.70
2023-02-08T02:00:35.099Z,65.95
2023-02-08T02:03:04.797Z,76.05
2023-02-08T02:05:41.552Z,61.40
2023-02-08T02:08:09.949Z,84.07
2023-02-08T02:10:39.228Z,56.78
2023-02-08T02:13:10.809Z,53.83
2023-02-08T02:15:38.181Z,51.47
2023-02-08T02:18:07.895Z,51.67
2023-02-08T02:20:58.401Z,84.45
2023-02-08T02:23:28.656Z,72.28
2023-02-08T02:26:32.904Z,63.13
2023-02-08T02:29:27.690Z,76.97
2023-02-08T02:32:21.394Z,52.53
2023-02-08T02:35:01.094Z,54.92
2023-02-08T02:37:54.701Z,62.03
2023-02-08T02:40:27.953Z,93.50
2023-02-08T02:43:46.209Z,108.90
2023-02-08T02:48:59.203Z,72.38
2023-02-08T02:51:29.108Z,82.88
2023-02-08T02:54:15.711Z,81.68
2023-02-08T02:56:50.692Z,51.20
2023-02-08T02:59:19.594Z,49.63
2023-02-08T03:01:47.541Z,139.38
2023-02-08T03:04:39.137Z,176.27
2023-02-08T03:07:11.885Z,148.15
2023-02-08T03:09:39.131Z,110.03
2023-02-08T03:12:12.298Z,137.35
2023-02-08T03:15:01.307Z,77.88
2023-02-08T03:17:53.561Z,74.97
2023-02-08T03:20:34.482Z,73.75
2023-02-08T03:23:13.761Z,70.78
2023-02-08T03:26:14.812Z,73.60
2023-02-08T03:29:03.945Z,83.35
2023-02-08T03:31:51.224Z,78.43
2023-02-08T03:34:28.840Z,69.22
2023-02-08T03:37:03.610Z,102.25
2023-02-08T03:39:33.085Z,89.40
2023-02-08T03:42:06.400Z,75.88
2023-02-08T03:44:46.213Z,78.68
2023-02-08T03:47:22.329Z,72.00
2023-02-08T03:49:53.319Z,65.20
2023-02-08T03:52:23.238Z,61.03
2023-02-08T03:55:05.496Z,63.30
2023-02-08T03:57:51.805Z,61.63
2023-02-08T04:00:21.682Z,66.65
2023-02-08T04:03:07.804Z,73.78
2023-02-08T04:05:35.435Z,65.68
2023-02-08T04:08:02.879Z,68.15
2023-02-08T04:10:30.293Z,63.50
2023-02-08T04:12:57.587Z,62.80
2023-02-08T04:15:27.406Z,64.65
2023-02-08T04:17:54.991Z,60.65
2023-02-08T04:20:22.271Z,75.72
2023-02-08T04:22:49.790Z,66.57
2023-02-08T04:25:17.364Z,69.65
2023-02-08T04:27:44.826Z,116.75
2023-02-08T04:30:12.951Z,74.78
2023-02-08T04:32:40.429Z,85.57
2023-02-08T04:35:08.040Z,59.00
2023-02-08T04:37:35.489Z,74.90
2023-02-08T04:40:02.812Z,75.93
2023-02-08T04:42:30.536Z,78.20
2023-02-08T04:44:57.951Z,66.50
2023-02-08T04:47:25.228Z,65.75
2023-02-08T04:49:52.682Z,66.45
2023-02-08T04:52:20.355Z,63.78
2023-02-08T04:54:47.738Z,70.07
2023-02-08T04:57:15.515Z,115.90
2023-02-08T04:59:42.943Z,90.22
2023-02-08T05:02:10.221Z,174.43
2023-02-08T05:04:37.718Z,121.60
2023-02-08T05:07:05.198Z,202.00
2023-02-08T05:09:33.726Z,109.32
2023-02-08T05:12:01.028Z,106.30
2023-02-08T05:14:28.320Z,83.00
2023-02-08T05:16:55.698Z,76.40
2023-02-08T05:19:22.948Z,171.90
2023-02-08T05:21:50.209Z,68.88
2023-02-08T05:24:17.551Z,74.45
2023-02-08T05:26:44.915Z,169.20
2023-02-08T05:29:12.263Z,96.32
2023-02-08T05:31:39.770Z,89.55
2023-02-08T05:34:07.151Z,129.82
2023-02-08T05:36:34.469Z,110.00
2023-02-08T05:39:01.829Z,67.65
2023-02-08T05:41:29.201Z,123.80
2023-02-08T05:43:56.498Z,139.27
2023-02-08T05:46:23.830Z,74.50
2023-02-08T05:48:51.173Z,83.28
2023-02-08T05:51:18.578Z,108.65
2023-02-08T05:53:45.988Z,101.72
2023-02-08T05:56:13.452Z,220.45
2023-02-08T05:58:40.792Z,113.05
2023-02-08T06:01:12.893Z,252.25
2023-02-08T06:03:41.055Z,270.63
2023-02-08T06:06:11.276Z,55.05
2023-02-08T06:08:41.728Z,168.38
2023-02-08T06:11:09.165Z,140.43
2023-02-08T06:13:36.488Z,106.75
2023-02-08T06:16:03.897Z,169.77
2023-02-08T06:18:31.395Z,102.72
2023-02-08T06:20:58.705Z,103.80
2023-02-08T06:23:25.994Z,96.40
2023-02-08T06:25:53.643Z,83.10
2023-02-08T06:28:21.203Z,74.30
2023-02-08T06:30:52.191Z,57.53
2023-02-08T06:33:19.950Z,49.28
2023-02-08T06:35:50.689Z,54.88
2023-02-08T06:38:18.413Z,47.00
2023-02-08T06:40:49.515Z,58.58
2023-02-08T06:43:17.062Z,49.97
2023-02-08T06:45:47.683Z,47.17
2023-02-08T06:48:15.698Z,44.13
2023-02-08T06:50:43.343Z,49.22
2023-02-08T06:53:10.863Z,56.47
2023-02-08T06:55:38.980Z,47.25
2023-02-08T06:58:06.416Z,46.15
2023-02-08T07:00:34.720Z,46.22
2023-02-08T07:03:01.999Z,50.90
2023-02-08T07:05:29.310Z,52.83
2023-02-08T07:07:56.626Z,56.40
2023-02-08T07:10:23.985Z,52.55
2023-02-08T07:12:51.357Z,49.40
2023-02-08T07:15:18.879Z,56.35
2023-02-08T07:17:46.202Z,53.83
2023-02-08T07:20:13.637Z,50.65
2023-02-08T07:22:41.657Z,51.15
2023-02-08T07:25:09.685Z,59.78
2023-02-08T07:27:37.042Z,49.60
2023-02-08T07:30:05.044Z,44.10
2023-02-08T07:32:34.683Z,42.33
2023-02-08T07:35:02.558Z,53.65
2023-02-08T07:37:29.908Z,47.88
2023-02-08T07:39:57.298Z,53.55
2023-02-08T07:42:24.691Z,50.10
2023-02-08T07:44:52.009Z,49.75
2023-02-08T07:47:19.426Z,51.95
2023-02-08T07:49:46.722Z,48.20
2023-02-08T07:52:14.420Z,47.80
2023-02-08T07:54:41.757Z,48.25
2023-02-08T07:57:09.175Z,44.35
2023-02-08T07:59:36.700Z,42.88
2023-02-08T08:02:04.067Z,40.08
2023-02-08T08:04:31.448Z,47.05
2023-02-08T08:06:58.805Z,54.03
2023-02-08T08:09:27.312Z,48.60
2023-02-08T08:11:54.689Z,46.38
2023-02-08T08:14:22.041Z,51.20
2023-02-08T08:16:49.337Z,50.45
2023-02-08T08:19:16.621Z,49.45
2023-02-08T08:21:44.029Z,49.60
2023-02-08T08:24:11.571Z,63.55
2023-02-08T08:26:38.869Z,54.80
2023-02-08T08:29:07.236Z,53.78
2023-02-08T08:31:34.746Z,42.60
2023-02-08T08:34:02.150Z,41.03
2023-02-08T08:36:30.283Z,53.30
2023-02-08T08:38:57.535Z,50.45
2023-02-08T08:41:27.258Z,51.67
2023-02-08T08:43:54.959Z,49.50
2023-02-08T08:46:22.350Z,48.17
2023-02-08T08:48:51.727Z,54.40
2023-02-08T08:51:19.050Z,42.88
2023-02-08T08:53:46.444Z,44.25
2023-02-08T08:56:13.889Z,44.10
2023-02-08T08:58:41.389Z,52.38
2023-02-08T09:01:08.770Z,48.35
2023-02-08T09:03:36.139Z,47.97
2023-02-08T09:06:03.599Z,54.25
2023-02-08T09:08:30.943Z,77.25
2023-02-08T09:11:07.028Z,90.18
2023-02-08T09:13:35.224Z,84.25
2023-02-08T09:16:16.625Z,95.10
2023-02-08T09:18:44.520Z,76.70
2023-02-08T09:21:14.639Z,84.45
2023-02-08T09:23:42.472Z,86.25
2023-02-08T09:26:12.428Z,76.93
2023-02-08T09:28:39.810Z,95.03
2023-02-08T09:31:15.384Z,109.25
2023-02-08T09:33:42.694Z,90.78
2023-02-08T09:36:10.367Z,90.10
2023-02-08T09:38:38.438Z,81.82
2023-02-08T09:41:33.357Z,103.40
2023-02-08T09:44:18.652Z,84.80
2023-02-08T09:46:58.841Z,70.20
2023-02-08T09:49:34.924Z,66.82
2023-02-08T09:52:07.145Z,70.32
2023-02-08T09:54:38.614Z,79.85
2023-02-08T09:57:14.474Z,92.68
2023-02-08T09:59:53.333Z,89.07
2023-02-08T10:02:26.398Z,80.30
2023-02-08T10:05:11.758Z,80.57
2023-02-08T10:07:41.172Z,83.45
2023-02-08T10:10:22.399Z,71.07
2023-02-08T10:13:20.546Z,67.20
2023-02-08T10:15:59.141Z,67.95
2023-02-08T10:18:51.974Z,68.57
2023-02-08T10:21:43.155Z,73.10
2023-02-08T10:24:18.333Z,69.28
2023-02-08T10:26:58.576Z,68.75
2023-02-08T10:29:50.690Z,75.05
2023-02-08T10:32:36.638Z,88.32
2023-02-08T10:35:15.157Z,87.03
2023-02-08T10:37:44.325Z,84.05
2023-02-08T10:40:37.917Z,89.07
2023-02-08T10:43:30.888Z,98.40
2023-02-08T10:46:59.585Z,96.03
2023-02-08T10:49:43.508Z,101.68
2023-02-08T10:52:11.289Z,98.25
2023-02-08T10:54:38.818Z,99.85
2023-02-08T10:57:18.807Z,108.97
2023-02-08T11:00:18.017Z,119.38
2023-02-08T11:02:47.271Z,119.20
2023-02-08T11:05:16.686Z,114.65
2023-02-08T11:07:44.030Z,102.35
2023-02-08T11:10:14.095Z,101.35
2023-02-08T11:12:42.237Z,96.00
2023-02-08T11:15:56.275Z,128.95
2023-02-08T11:18:42.088Z,127.03
2023-02-08T11:21:22.383Z,123.75
2023-02-08T11:23:52.788Z,136.63
2023-02-08T11:26:25.002Z,134.23
2023-02-08T11:29:18.326Z,150.07
2023-02-08T11:32:01.228Z,147.05
2023-02-08T11:34:32.795Z,155.48
2023-02-08T11:37:03.903Z,148.32
2023-02-08T11:39:43.006Z,163.60
2023-02-08T11:42:27.583Z,139.90
2023-02-08T11:44:57.333Z,165.00
2023-02-08T11:47:27.549Z,151.18
2023-02-08T11:49:57.815Z,136.02
2023-02-08T11:52:35.479Z,139.95
2023-02-08T11:55:25.953Z,147.93
2023-02-08T11:58:23.896Z,143.50
2023-02-08T12:01:17.308Z,140.93
2023-02-08T12:03:48.016Z,110.07
2023-02-08T12:06:25.688Z,110.38
2023-02-08T12:09:22.162Z,99.80
2023-02-08T12:12:06.965Z,100.50
2023-02-08T12:15:24.224Z,89.63
2023-02-08T12:18:14.821Z,95.50
2023-02-08T12:20:47.054Z,103.00
2023-02-08T12:23:44.997Z,93.30
2023-02-08T12:26:23.253Z,97.20
2023-02-08T12:29:03.107Z,96.70
2023-02-08T12:31:51.779Z,100.93
2023-02-08T12:34:36.029Z,93.50
2023-02-08T12:37:43.111Z,91.88
2023-02-08T12:40:55.572Z,87.18
2023-02-08T12:43:58.843Z,90.10
2023-02-08T12:47:03.562Z,84.70
2023-02-08T12:49:43.864Z,85.13
2023-02-08T12:52:19.842Z,81.57
2023-02-08T12:55:00.855Z,78.63
2023-02-08T12:57:31.866Z,84.20
2023-02-08T13:00:01.509Z,84.75
2023-02-08T13:02:58.935Z,81.15
2023-02-08T13:08:23.316Z,90.45
2023-02-08T13:11:05.494Z,81.88
2023-02-08T13:13:40.546Z,79.60
2023-02-08T13:16:16.820Z,78.28
2023-02-08T13:18:52.933Z,88.57
2023-02-08T13:21:30.714Z,68.22
2023-02-08T13:23:58.472Z,57.72
2023-02-08T13:26:31.455Z,57.90
2023-02-08T13:29:02.567Z,52.75
2023-02-08T13:31:34.516Z,57.70
2023-02-08T13:34:08.588Z,96.15
2023-02-08T13:36:39.782Z,59.55
2023-02-08T13:39:39.276Z,51.30
2023-02-08T13:42:18.643Z,46.03
2023-02-08T13:44:51.617Z,50.85
2023-02-08T13:47:54.256Z,51.30
2023-02-08T13:50:48.718Z,42.22
2023-02-08T13:53:17.508Z,42.42
2023-02-08T13:56:01.807Z,55.30
2023-02-08T13:58:35.714Z,48.30
2023-02-08T14:01:20.914Z,44.28
2023-02-08T14:04:07.092Z,52.38
2023-02-08T14:06:44.336Z,41.53
2023-02-08T14:09:31.039Z,42.28
2023-02-08T14:12:06.942Z,40.53
2023-02-08T14:14:40.218Z,39.45
2023-02-08T14:17:07.486Z,39.92
2023-02-08T14:19:43.601Z,35.80
2023-02-08T14:24:49.205Z,34.20
2023-02-08T14:27:22.580Z,35.90
2023-02-08T14:30:15.068Z,40.22
2023-02-08T14:33:02.471Z,34.65
2023-02-08T14:35:32.056Z,40.85
2023-02-08T14:38:24.306Z,45.42
2023-02-08T14:40:55.040Z,42.50
2023-02-08T14:43:40.592Z,48.60
2023-02-08T14:46:39.378Z,48.58
2023-02-08T14:49:11.134Z,42.65
2023-02-08T14:51:43.037Z,46.25
2023-02-08T14:54:23.150Z,43.83
2023-02-08T14:57:06.652Z,43.95
2023-02-08T14:59:35.627Z,48.10
2023-02-08T15:02:11.456Z,46.22
2023-02-08T15:04:46.129Z,49.53
2023-02-08T15:07:35.452Z,49.22
2023-02-08T15:10:06.645Z,50.78
2023-02-08T15:12:38.829Z,45.40
2023-02-08T15:15:17.695Z,51.95
2023-02-08T15:17:48.477Z,53.45
2023-02-08T15:20:33.859Z,47.15
2023-02-08T15:23:07.135Z,50.33
2023-02-08T15:25:38.394Z,50.03
2023-02-08T15:28:19.998Z,55.28
2023-02-08T15:30:58.528Z,46.47
2023-02-08T15:33:26.473Z,52.90
2023-02-08T15:36:06.656Z,44.83
2023-02-08T15:38:38.518Z,46.03
2023-02-08T15:41:12.254Z,47.17
2023-02-08T15:47:32.025Z,43.03
2023-02-08T15:50:00.406Z,42.85
2023-02-08T15:52:35.766Z,35.30
2023-02-08T15:55:22.150Z,36.60
2023-02-08T15:58:28.731Z,32.08
2023-02-08T16:01:02.253Z,37.47
2023-02-08T16:03:30.865Z,30.00
2023-02-08T16:06:06.193Z,25.85
2023-02-08T16:08:37.316Z,27.67
2023-02-08T16:11:15.617Z,28.77
2023-02-08T16:14:04.130Z,30.60
2023-02-08T16:17:36.657Z,25.35
2023-02-08T16:27:25.982Z,30.73
2023-02-08T16:29:53.983Z,24.10
2023-02-08T16:32:41.710Z,32.13
2023-02-08T16:35:33.585Z,34.35
2023-02-08T16:38:02.881Z,31.67
2023-02-08T16:40:42.664Z,33.08
2023-02-08T16:43:25.473Z,34.55
2023-02-08T16:46:44.984Z,39.53
2023-02-08T16:50:14.489Z,41.63
2023-02-08T16:56:25.393Z,33.95
2023-02-08T16:58:58.694Z,36.35
2023-02-08T17:06:15.674Z,37.25
2023-02-08T17:19:10.486Z,38.20
2023-02-08T17:20:26.012Z,38.55
2023-02-08T17:27:43.567Z,37.85
2023-02-08T17:34:08.861Z,51.63
2023-02-08T17:37:20.179Z,42.80
2023-02-08T17:46:29.552Z,41.47
2023-02-08T17:49:29.464Z,48.65
2023-02-08T17:52:02.422Z,42.42
2023-02-08T17:58:32.863Z,41.97
2023-02-08T18:01:00.836Z,46.53
2023-02-08T18:03:46.243Z,41.60
2023-02-08T18:15:31.425Z,56.67
2023-02-08T18:18:07.358Z,52.83
2023-02-08T18:23:33.313Z,47.53
2023-02-08T18:26:07.526Z,53.83
2023-02-08T18:28:41.351Z,46.67
2023-02-08T18:31:21.328Z,44.78
2023-02-08T18:34:10.103Z,57.42
2023-02-08T18:36:37.646Z,57.38
2023-02-08T18:39:04.947Z,56.47
2023-02-08T18:41:32.255Z,49.25
2023-02-08T18:43:59.993Z,44.25
2023-02-08T18:46:28.341Z,52.75
2023-02-08T18:48:56.148Z,46.58
2023-02-08T18:51:24.451Z,48.25
2023-02-08T18:53:54.355Z,49.33
2023-02-08T18:56:24.145Z,41.55
2023-02-08T18:58:53.011Z,39.35
2023-02-08T19:02:55.585Z,47.20
2023-02-08T19:05:23.432Z,45.95
2023-02-08T19:07:50.694Z,45.22
2023-02-08T19:15:05.605Z,43.55
2023-02-08T19:17:59.315Z,42.70
2023-02-08T19:23:42.336Z,40.30
2023-02-08T19:26:24.096Z,40.78
2023-02-08T19:29:08.734Z,40.42
2023-02-08T19:31:51.842Z,43.05
2023-02-08T19:37:17.761Z,42.58
2023-02-08T19:40:02.299Z,44.85
2023-02-08T19:42:51.422Z,46.53
2023-02-08T19:49:04.332Z,42.38
2023-02-08T19:55:02.876Z,46.58
2023-02-08T19:57:30.327Z,41.65
2023-02-08T19:59:57.667Z,51.05
2023-02-08T20:02:27.372Z,43.95
2023-02-08T20:04:54.919Z,51.25
2023-02-08T20:07:25.605Z,45.13
2023-02-08T20:09:52.903Z,49.88
2023-02-08T20:12:21.023Z,46.88
2023-02-08T20:14:48.448Z,48.80
2023-02-08T20:17:15.719Z,45.65
2023-02-08T20:25:40.444Z,57.33
2023-02-08T20:27:00.289Z,59.58
2023-02-08T20:29:29.182Z,55.22
2023-02-08T20:35:03.681Z,54.28
2023-02-08T20:40:45.345Z,58.22
2023-02-08T20:43:43.213Z,43.25
2023-02-08T20:46:19.074Z,52.63
2023-02-08T20:49:27.211Z,43.30
2023-02-08T20:51:57.178Z,46.47
2023-02-08T20:54:24.951Z,40.80
2023-02-08T20:56:53.321Z,43.00
2023-02-08T20:59:20.751Z,46.20
2023-02-08T21:01:48.316Z,45.20
2023-02-08T21:04:17.196Z,41.90
2023-02-08T21:15:03.718Z,47.50
2023-02-08T21:17:59.155Z,50.67
2023-02-08T21:23:45.158Z,50.47
2023-02-08T21:30:15.122Z,47.72
2023-02-08T21:33:11.483Z,43.90
2023-02-08T21:36:03.580Z,51.20
2023-02-08T21:39:23.001Z,46.72
2023-02-08T21:42:18.868Z,45.47
2023-02-08T21:44:59.928Z,46.20
2023-02-08T21:47:45.967Z,50.45
2023-02-08T21:54:23.494Z,46.08
2023-02-08T21:59:48.730Z,45.90
2023-02-08T22:02:26.108Z,49.90
2023-02-08T22:05:00.920Z,48.28
2023-02-08T22:07:28.964Z,43.85
2023-02-08T22:09:56.466Z,52.72
2023-02-08T22:12:24.058Z,51.10
2023-02-08T22:14:51.469Z,53.65
2023-02-08T22:17:18.991Z,52.35
2023-02-08T22:19:46.288Z,48.25
2023-02-08T22:22:13.547Z,47.90
2023-02-08T22:24:40.940Z,51.63
2023-02-08T22:27:12.376Z,51.13
2023-02-08T22:29:39.636Z,47.20
2023-02-08T22:32:09.878Z,48.70
2023-02-08T22:34:38.586Z,55.65
2023-02-08T22:37:05.978Z,54.13
2023-02-08T22:39:34.260Z,53.70
2023-02-08T22:42:08.031Z,55.65
2023-02-08T22:44:36.464Z,53.22
2023-02-08T22:47:06.348Z,50.83
2023-02-08T22:49:34.647Z,45.38
2023-02-08T22:52:02.129Z,50.10
2023-02-08T22:54:29.492Z,46.53
2023-02-08T22:56:56.765Z,51.85
2023-02-08T22:59:24.100Z,56.20
2023-02-08T23:01:51.425Z,48.95
2023-02-08T23:04:18.754Z,52.20
2023-02-08T23:06:47.701Z,55.63
2023-02-08T23:09:15.158Z,58.45
2023-02-08T23:11:42.418Z,49.50
2023-02-08T23:14:09.756Z,47.03
2023-02-08T23:16:37.524Z,46.88
2023-02-08T23:19:05.570Z,54.47
2023-02-08T23:21:33.179Z,53.00
2023-02-08T23:24:00.507Z,55.13
2023-02-08T23:26:27.798Z,56.20
2023-02-08T23:28:55.112Z,57.03
2023-02-08T23:31:22.886Z,55.97
2023-02-08T23:33:50.284Z,54.60
2023-02-08T23:36:23.166Z,56.60
2023-02-08T23:38:51.270Z,53.10
2023-02-08T23:41:23.138Z,52.22
2023-02-08T23:43:51.840Z,52.95
2023-02-08T23:46:25.490Z,53.95
2023-02-08T23:48:53.444Z,51.70
2023-02-08T23:51:22.919Z,51.33
2023-02-08T23:53:51.891Z,53.20
2023-02-08T23:56:23.515Z,50.90
2023-02-08T23:58:53.640Z,58.90
